Time;durP1;ratioP1;P1;durP2;ratioP2;P2;SDS_P1;SDS_P2;PMS_P1;PMS_P2;Temp;Humidity;BMP_temperature;BMP_pressure;BME280_temperature;BME280_humidity;BME280_pressure;Samples;Min_cycle;Max_cycle;Signal;HPM_P1;HPM_P2
2022/10/30 00:00:31;;;;;;;;;;;14.80;99.90;;;;;;6242655;23;19900;-76
2022/10/30 00:02:56;;;;;;;;;;;14.90;99.90;;;;;;6242115;23;20343;-76
2022/10/30 00:05:22;;;;;;;;;;;14.90;99.90;;;;;;6243184;23;19918;-75
2022/10/30 00:07:47;;;;;;;;;;;14.80;99.90;;;;;;6241576;23;19922;-76
2022/10/30 00:10:13;;;;;;;;;;;14.90;99.90;;;;;;6242410;22;19900;-76
2022/10/30 00:12:39;;;;;;;;;;;14.80;99.90;;;;;;6242013;22;20383;-76
2022/10/30 00:15:06;;;;;;;;;;;14.80;99.90;;;;;;6242569;22;19975;-76
2022/10/30 00:17:32;;;;;;;;;;;14.80;99.90;;;;;;6241860;22;19900;-76
2022/10/30 00:19:58;;;;;;;;;;;14.80;99.90;;;;;;6242645;22;19910;-76
2022/10/30 00:22:23;;;;;;;;;;;14.70;99.90;;;;;;6242571;22;19899;-76
2022/10/30 00:24:48;;;;;;;;;;;14.70;99.90;;;;;;6241941;23;20316;-76
2022/10/30 00:27:14;;;;;;;;;;;14.60;99.90;;;;;;6242397;23;19978;-75
2022/10/30 00:29:39;;;;;;;;;;;14.70;99.90;;;;;;6242137;23;19907;-76
2022/10/30 00:32:05;;;;;;;;;;;14.50;99.90;;;;;;6241955;22;20239;-76
2022/10/30 00:34:30;;;;;;;;;;;14.70;99.90;;;;;;6242169;23;19903;-75
2022/10/30 00:36:56;;;;;;;;;;;14.40;99.90;;;;;;6242833;23;19910;-76
2022/10/30 00:39:21;;;;;;;;;;;14.30;99.90;;;;;;6242266;23;19978;-76
2022/10/30 00:41:47;;;;;;;;;;;14.30;99.90;;;;;;6242137;23;19930;-76
2022/10/30 00:44:31;;;;;;;;;;;14.20;99.90;;;;;;6242588;23;20297;-75
2022/10/30 00:46:57;;;;;;;;;;;14.20;99.90;;;;;;6241856;23;20327;-76
2022/10/30 00:49:23;;;;;;;;;;;14.10;99.90;;;;;;6242281;22;19911;-76
2022/10/30 00:51:51;;;;;;;;;;;14.00;99.90;;;;;;6242417;22;19908;-76
2022/10/30 00:54:17;;;;;;;;;;;14.00;99.90;;;;;;6242287;22;19906;-75
2022/10/30 00:56:43;;;;;;;;;;;15.00;99.90;;;;;;6241792;22;19899;-76
2022/10/30 00:59:14;;;;;;;;;;;13.90;99.90;;;;;;6242228;22;19900;-75
2022/10/30 01:01:42;;;;;;;;;;;13.90;99.90;;;;;;6241767;22;19983;-76
2022/10/30 01:04:07;;;;;;;;;;;13.80;99.90;;;;;;6241962;22;19908;-76
2022/10/30 01:06:35;;;;;;;;;;;13.70;99.90;;;;;;6242385;22;19962;-76
2022/10/30 01:09:01;;;;;;;;;;;13.60;99.90;;;;;;6241927;22;19911;-76
2022/10/30 01:11:27;;;;;;;;;;;13.70;99.90;;;;;;6242127;22;19900;-76
2022/10/30 01:13:54;;;;;;;;;;;15.70;99.90;;;;;;6241938;22;19907;-76
2022/10/30 01:16:43;;;;;;;;;;;13.60;99.90;;;;;;6241607;22;19919;-76
2022/10/30 01:19:19;;;;;;;;;;;13.60;99.90;;;;;;6242456;22;19966;-75
2022/10/30 01:21:53;;;;;;;;;;;13.60;99.90;;;;;;6241825;22;19905;-75
2022/10/30 01:24:27;;;;;;;;;;;13.60;99.90;;;;;;6241986;22;19911;-75
2022/10/30 01:27:13;;;;;;;;;;;13.40;99.90;;;;;;6241644;22;20308;-75
2022/10/30 01:29:58;;;;;;;;;;;13.40;99.90;;;;;;6239999;23;19962;-75
2022/10/30 01:32:26;;;;;;;;;;;13.40;99.90;;;;;;6241911;23;19906;-76
2022/10/30 01:35:00;;;;;;;;;;;13.40;99.90;;;;;;6241448;23;19906;-76
2022/10/30 01:37:46;;;;;;;;;;;13.40;99.90;;;;;;6241925;23;20155;-76
2022/10/30 01:40:13;;;;;;;;;;;13.30;99.90;;;;;;6241164;23;19904;-76
2022/10/30 01:42:46;;;;;;;;;;;13.40;99.90;;;;;;6241978;22;20229;-75
2022/10/30 01:45:14;;;;;;;;;;;13.50;99.90;;;;;;6239660;23;19907;-75
2022/10/30 01:47:46;;;;;;;;;;;13.50;99.90;;;;;;6241935;22;19899;-75
2022/10/30 01:50:15;;;;;;;;;;;13.40;99.90;;;;;;6242147;23;19900;-76
2022/10/30 01:52:49;;;;;;;;;;;13.40;99.90;;;;;;6241511;22;19900;-75
2022/10/30 01:55:21;;;;;;;;;;;13.30;99.90;;;;;;6242332;22;19903;-75
2022/10/30 01:57:54;;;;;;;;;;;13.30;99.90;;;;;;6242758;22;19907;-76
2022/10/30 02:00:20;;;;;;;;;;;13.30;99.90;;;;;;6243471;22;19948;-76
2022/10/30 02:02:47;;;;;;;;;;;13.20;99.90;;;;;;6243946;22;19916;-76
2022/10/30 02:05:16;;;;;;;;;;;13.50;99.90;;;;;;6243931;22;19973;-75
2022/10/30 02:07:42;;;;;;;;;;;13.20;99.90;;;;;;6242093;22;19957;-76
2022/10/30 02:10:09;;;;;;;;;;;13.20;99.90;;;;;;6241162;23;19903;-75
2022/10/30 02:12:35;;;;;;;;;;;13.10;99.90;;;;;;6241653;22;19935;-76
2022/10/30 02:15:00;;;;;;;;;;;13.10;99.90;;;;;;6240602;23;19922;-75
2022/10/30 02:17:26;;;;;;;;;;;13.10;99.90;;;;;;6241172;23;19899;-76
2022/10/30 02:19:52;;;;;;;;;;;13.10;99.90;;;;;;6241348;22;20301;-75
2022/10/30 02:22:17;;;;;;;;;;;13.10;99.90;;;;;;6241325;23;19899;-75
2022/10/30 02:24:43;;;;;;;;;;;13.00;99.90;;;;;;6242972;22;19994;-76
2022/10/30 02:27:09;;;;;;;;;;;15.10;99.90;;;;;;6243807;22;19899;-75
2022/10/30 02:29:34;;;;;;;;;;;13.00;99.90;;;;;;6242822;23;19926;-76
2022/10/30 02:32:00;;;;;;;;;;;13.00;99.90;;;;;;6243719;23;19899;-75
2022/10/30 02:34:25;;;;;;;;;;;12.90;99.90;;;;;;6242574;22;20248;-75
2022/10/30 02:36:51;;;;;;;;;;;12.90;99.90;;;;;;6243322;23;19899;-75
2022/10/30 02:39:16;;;;;;;;;;;12.90;99.90;;;;;;6243623;23;20315;-75
2022/10/30 02:41:42;;;;;;;;;;;13.00;99.90;;;;;;6243121;22;19953;-76
2022/10/30 02:44:07;;;;;;;;;;;13.10;99.90;;;;;;6242816;23;19903;-75
2022/10/30 02:46:33;;;;;;;;;;;13.00;99.90;;;;;;6243205;23;19949;-75
2022/10/30 02:48:59;;;;;;;;;;;13.10;99.90;;;;;;6243463;22;19906;-75
2022/10/30 02:51:24;;;;;;;;;;;13.10;99.90;;;;;;6243618;23;19900;-76
2022/10/30 02:53:49;;;;;;;;;;;13.10;99.90;;;;;;6243148;23;19978;-76
2022/10/30 02:56:15;;;;;;;;;;;13.00;99.90;;;;;;6243328;23;19900;-75
2022/10/30 02:58:41;;;;;;;;;;;13.00;99.90;;;;;;6242641;23;20300;-75
2022/10/30 03:01:08;;;;;;;;;;;13.00;99.90;;;;;;6243530;22;19922;-75
2022/10/30 03:03:34;;;;;;;;;;;12.90;99.90;;;;;;6243132;22;19914;-75
2022/10/30 03:06:00;;;;;;;;;;;12.80;99.90;;;;;;6243191;22;19899;-75
2022/10/30 03:08:26;;;;;;;;;;;12.80;99.90;;;;;;6243337;22;19903;-75
2022/10/30 03:10:51;;;;;;;;;;;12.80;99.90;;;;;;6242879;23;19899;-75
2022/10/30 03:13:17;;;;;;;;;;;12.80;99.90;;;;;;6243024;23;19903;-76
2022/10/30 03:15:42;;;;;;;;;;;12.80;99.90;;;;;;6242863;23;20001;-75
2022/10/30 03:18:07;;;;;;;;;;;14.50;99.90;;;;;;6243284;23;19899;-75
2022/10/30 03:20:33;;;;;;;;;;;12.70;99.90;;;;;;6242943;23;20314;-76
2022/10/30 03:22:58;;;;;;;;;;;12.70;99.90;;;;;;6243205;23;20206;-75
2022/10/30 03:25:24;;;;;;;;;;;12.80;99.90;;;;;;6242983;23;19904;-75
2022/10/30 03:27:49;;;;;;;;;;;12.70;99.90;;;;;;6242138;23;19935;-75
2022/10/30 03:30:15;;;;;;;;;;;12.70;99.90;;;;;;6243382;23;19903;-75
2022/10/30 03:32:40;;;;;;;;;;;12.70;99.90;;;;;;6242879;23;19970;-75
2022/10/30 03:35:06;;;;;;;;;;;12.70;99.90;;;;;;6242916;23;20336;-75
2022/10/30 03:37:31;;;;;;;;;;;12.80;99.90;;;;;;6242817;23;19946;-75
2022/10/30 03:39:57;;;;;;;;;;;12.80;99.90;;;;;;6242369;23;20317;-76
2022/10/30 03:42:22;;;;;;;;;;;12.70;99.90;;;;;;6242455;23;19935;-75
2022/10/30 03:44:48;;;;;;;;;;;12.70;99.90;;;;;;6242749;23;20367;-75
2022/10/30 03:47:13;;;;;;;;;;;12.60;99.90;;;;;;6242957;22;19899;-75
2022/10/30 03:49:39;;;;;;;;;;;12.60;99.90;;;;;;6242353;23;19927;-76
2022/10/30 03:52:04;;;;;;;;;;;12.60;99.90;;;;;;6243063;23;19900;-75
2022/10/30 03:54:29;;;;;;;;;;;12.60;99.90;;;;;;6242615;23;19900;-76
2022/10/30 03:56:55;;;;;;;;;;;12.60;99.90;;;;;;6242075;23;19939;-75
2022/10/30 03:59:20;;;;;;;;;;;12.60;99.90;;;;;;6242993;23;19957;-75
2022/10/30 04:01:46;;;;;;;;;;;12.70;99.90;;;;;;6242353;23;20175;-75
2022/10/30 04:04:11;;;;;;;;;;;12.60;99.90;;;;;;6242433;23;19943;-75
2022/10/30 04:06:37;;;;;;;;;;;12.60;99.90;;;;;;6242504;23;19904;-75
2022/10/30 04:09:02;;;;;;;;;;;12.60;99.90;;;;;;6242519;23;20309;-75
2022/10/30 04:11:28;;;;;;;;;;;12.50;99.90;;;;;;6241965;23;19900;-75
2022/10/30 04:13:53;;;;;;;;;;;12.50;99.90;;;;;;6242065;23;19995;-75
2022/10/30 04:16:18;;;;;;;;;;;12.50;99.90;;;;;;6242319;23;19900;-75
2022/10/30 04:18:44;;;;;;;;;;;12.50;99.90;;;;;;6242478;23;20271;-75
2022/10/30 04:21:09;;;;;;;;;;;12.50;99.90;;;;;;6242411;23;20218;-76
2022/10/30 04:23:35;;;;;;;;;;;12.50;99.90;;;;;;6242187;23;19908;-76
2022/10/30 04:26:01;;;;;;;;;;;12.50;99.90;;;;;;6242351;23;19899;-75
2022/10/30 04:28:26;;;;;;;;;;;12.40;99.90;;;;;;6242303;22;19919;-75
2022/10/30 04:30:51;;;;;;;;;;;12.40;99.90;;;;;;6242272;22;19938;-75
2022/10/30 04:33:17;;;;;;;;;;;12.50;99.90;;;;;;6242105;23;19914;-75
2022/10/30 04:35:42;;;;;;;;;;;12.50;99.90;;;;;;6242633;23;19899;-76
2022/10/30 04:38:10;;;;;;;;;;;12.40;99.90;;;;;;6242088;23;19899;-75
2022/10/30 04:40:37;;;;;;;;;;;12.40;99.90;;;;;;6241646;22;20324;-75
2022/10/30 04:43:02;;;;;;;;;;;12.40;99.90;;;;;;6242391;22;19904;-75
2022/10/30 04:45:28;;;;;;;;;;;12.20;99.90;;;;;;6242438;22;20383;-76
2022/10/30 04:47:58;;;;;;;;;;;12.30;99.90;;;;;;6242253;23;19899;-76
2022/10/30 04:50:24;;;;;;;;;;;12.20;99.90;;;;;;6242742;22;19904;-75
2022/10/30 04:52:57;;;;;;;;;;;12.30;99.90;;;;;;6242001;23;19899;-76
2022/10/30 04:55:22;;;;;;;;;;;12.20;99.90;;;;;;6242291;22;19903;-75
2022/10/30 04:57:47;;;;;;;;;;;12.20;99.90;;;;;;6241764;23;19943;-75
2022/10/30 05:00:13;;;;;;;;;;;12.10;99.90;;;;;;6242193;23;19903;-75
2022/10/30 05:02:38;;;;;;;;;;;12.20;99.90;;;;;;6242095;22;19900;-75
2022/10/30 05:05:04;;;;;;;;;;;12.20;99.90;;;;;;6242087;23;19911;-75
2022/10/30 05:07:30;;;;;;;;;;;12.20;99.90;;;;;;6241285;22;19899;-75
2022/10/30 05:09:55;;;;;;;;;;;12.20;99.90;;;;;;6241980;22;19954;-76
2022/10/30 05:12:21;;;;;;;;;;;13.10;99.90;;;;;;6241879;23;19910;-75
2022/10/30 05:14:46;;;;;;;;;;;12.10;99.90;;;;;;6241967;22;19899;-75
2022/10/30 05:17:12;;;;;;;;;;;12.20;99.90;;;;;;6242091;23;19899;-75
2022/10/30 05:19:37;;;;;;;;;;;12.10;99.90;;;;;;6241736;23;19957;-75
2022/10/30 05:22:03;;;;;;;;;;;12.20;99.90;;;;;;6241499;23;19918;-75
2022/10/30 05:24:28;;;;;;;;;;;12.20;99.90;;;;;;6241899;22;20585;-75
2022/10/30 05:26:54;;;;;;;;;;;12.20;99.90;;;;;;6241804;23;20293;-76
2022/10/30 05:29:19;;;;;;;;;;;12.10;99.90;;;;;;6241737;23;19915;-75
2022/10/30 05:31:45;;;;;;;;;;;12.10;99.90;;;;;;6241502;23;19903;-75
2022/10/30 05:34:10;;;;;;;;;;;12.10;99.90;;;;;;6241859;23;19978;-76
2022/10/30 05:36:35;;;;;;;;;;;12.10;99.90;;;;;;6241679;23;19900;-75
2022/10/30 05:39:01;;;;;;;;;;;12.00;99.90;;;;;;6241844;23;20284;-76
2022/10/30 05:41:27;;;;;;;;;;;12.00;99.90;;;;;;6241504;22;19909;-75
2022/10/30 05:43:53;;;;;;;;;;;12.10;99.90;;;;;;6241001;22;20038;-75
2022/10/30 05:46:18;;;;;;;;;;;12.20;99.90;;;;;;6241203;23;20332;-75
2022/10/30 05:48:43;;;;;;;;;;;12.10;99.90;;;;;;6241816;23;20278;-75
2022/10/30 05:51:09;;;;;;;;;;;12.10;99.90;;;;;;6241072;23;20006;-75
2022/10/30 05:53:34;;;;;;;;;;;12.00;99.90;;;;;;6241491;23;19930;-75
2022/10/30 05:56:00;;;;;;;;;;;12.00;99.90;;;;;;6239477;23;19933;-75
2022/10/30 05:58:25;;;;;;;;;;;11.90;99.90;;;;;;6241877;23;19953;-75
2022/10/30 06:00:51;;;;;;;;;;;11.90;99.90;;;;;;6240954;23;19950;-75
2022/10/30 06:03:17;;;;;;;;;;;11.90;99.90;;;;;;6241289;22;20554;-75
2022/10/30 06:05:46;;;;;;;;;;;11.60;99.90;;;;;;6240792;23;19899;-76
2022/10/30 06:08:12;;;;;;;;;;;10.90;99.90;;;;;;6241923;22;19900;-75
2022/10/30 06:10:37;;;;;;;;;;;11.70;99.90;;;;;;6241503;22;19911;-75
2022/10/30 06:13:04;;;;;;;;;;;11.80;99.90;;;;;;6241829;23;19915;-75
2022/10/30 06:15:29;;;;;;;;;;;13.50;99.90;;;;;;6241690;22;19899;-75
2022/10/30 06:17:55;;;;;;;;;;;11.80;99.90;;;;;;6241750;23;19953;-75
2022/10/30 06:20:23;;;;;;;;;;;11.80;99.90;;;;;;6241170;22;19900;-75
2022/10/30 06:22:56;;;;;;;;;;;11.70;99.90;;;;;;6241443;22;19963;-75
2022/10/30 06:25:22;;;;;;;;;;;11.70;99.90;;;;;;6241604;22;20325;-75
2022/10/30 06:27:47;;;;;;;;;;;11.60;99.90;;;;;;6241170;22;20006;-74
2022/10/30 06:30:13;;;;;;;;;;;11.50;99.90;;;;;;6241810;23;19902;-75
2022/10/30 06:32:38;;;;;;;;;;;11.80;99.90;;;;;;6241134;23;19907;-76
2022/10/30 06:35:04;;;;;;;;;;;11.60;99.90;;;;;;6241033;23;19953;-75
2022/10/30 06:37:29;;;;;;;;;;;11.60;99.90;;;;;;6241539;23;20026;-75
2022/10/30 06:39:55;;;;;;;;;;;11.60;99.90;;;;;;6241507;23;19985;-75
2022/10/30 06:42:20;;;;;;;;;;;11.60;99.90;;;;;;6241844;23;19900;-75
2022/10/30 06:44:47;;;;;;;;;;;11.50;99.90;;;;;;6243041;23;19918;-75
2022/10/30 06:47:13;;;;;;;;;;;11.60;99.90;;;;;;6243954;22;19927;-75
2022/10/30 06:49:39;;;;;;;;;;;11.60;99.90;;;;;;6242487;22;20210;-76
2022/10/30 06:52:04;;;;;;;;;;;11.50;99.90;;;;;;6243469;23;19900;-75
2022/10/30 06:54:29;;;;;;;;;;;11.60;99.90;;;;;;6243043;23;19978;-76
2022/10/30 06:56:55;;;;;;;;;;;11.50;99.90;;;;;;6243197;23;19900;-75
2022/10/30 06:59:20;;;;;;;;;;;11.40;99.90;;;;;;6243074;23;19903;-75
2022/10/30 07:01:46;;;;;;;;;;;11.60;99.90;;;;;;6242898;23;19946;-76
2022/10/30 07:04:11;;;;;;;;;;;11.60;99.90;;;;;;6242390;23;19911;-76
2022/10/30 07:06:37;;;;;;;;;;;11.70;99.90;;;;;;6242807;23;20396;-75
2022/10/30 07:09:02;;;;;;;;;;;11.60;99.90;;;;;;6242901;23;19903;-76
2022/10/30 07:11:28;;;;;;;;;;;11.80;99.90;;;;;;6243223;23;19900;-76
2022/10/30 07:13:53;;;;;;;;;;;11.70;99.90;;;;;;6242835;23;19906;-75
2022/10/30 07:16:19;;;;;;;;;;;11.70;99.90;;;;;;6242860;23;20261;-75
2022/10/30 07:18:44;;;;;;;;;;;11.50;99.90;;;;;;6241991;23;19907;-75
2022/10/30 07:21:09;;;;;;;;;;;11.70;99.90;;;;;;6242999;23;19903;-76
2022/10/30 07:23:35;;;;;;;;;;;11.70;99.90;;;;;;6242774;23;19977;-75
2022/10/30 07:26:00;;;;;;;;;;;11.60;99.90;;;;;;6242924;23;19926;-75
2022/10/30 07:28:26;;;;;;;;;;;11.70;99.90;;;;;;6242439;23;19918;-76
2022/10/30 07:30:51;;;;;;;;;;;11.80;99.90;;;;;;6242681;23;19979;-76
2022/10/30 07:33:16;;;;;;;;;;;11.80;99.90;;;;;;6242211;23;19903;-76
2022/10/30 07:35:42;;;;;;;;;;;11.80;99.90;;;;;;6242539;23;19900;-76
2022/10/30 07:38:11;;;;;;;;;;;11.90;99.90;;;;;;6243061;23;19908;-76
2022/10/30 07:40:37;;;;;;;;;;;11.90;99.90;;;;;;6242600;22;19922;-76
2022/10/30 07:43:03;;;;;;;;;;;12.00;99.90;;;;;;6243112;22;20282;-75
2022/10/30 07:45:28;;;;;;;;;;;12.10;99.90;;;;;;6242815;22;19910;-77
2022/10/30 07:47:54;;;;;;;;;;;12.20;99.90;;;;;;6242383;22;19900;-76
2022/10/30 07:50:20;;;;;;;;;;;12.30;99.90;;;;;;6242886;23;20367;-76
2022/10/30 07:52:46;;;;;;;;;;;12.20;99.90;;;;;;6242704;22;19930;-77
2022/10/30 07:55:11;;;;;;;;;;;12.40;99.90;;;;;;6242592;22;19900;-77
2022/10/30 07:57:38;;;;;;;;;;;12.50;99.90;;;;;;6242340;23;20229;-76
2022/10/30 08:00:04;;;;;;;;;;;12.50;99.90;;;;;;6242907;22;19900;-76
2022/10/30 08:02:30;;;;;;;;;;;12.40;99.90;;;;;;6241886;22;19900;-76
2022/10/30 08:04:55;;;;;;;;;;;12.40;99.90;;;;;;6242519;22;20287;-76
2022/10/30 08:07:21;;;;;;;;;;;12.50;99.90;;;;;;6241707;23;19899;-76
2022/10/30 08:09:46;;;;;;;;;;;12.40;99.90;;;;;;6242441;23;19931;-76
2022/10/30 08:12:12;;;;;;;;;;;12.70;99.90;;;;;;6242780;23;20202;-76
2022/10/30 08:14:37;;;;;;;;;;;12.60;99.90;;;;;;6242754;23;20222;-77
2022/10/30 08:17:04;;;;;;;;;;;12.60;99.90;;;;;;6242211;23;20280;-77
2022/10/30 08:19:29;;;;;;;;;;;12.60;99.90;;;;;;6242123;22;19899;-77
2022/10/30 08:21:55;;;;;;;;;;;12.60;99.90;;;;;;6242827;23;19986;-77
2022/10/30 08:24:21;;;;;;;;;;;12.70;99.90;;;;;;6242659;22;19911;-76
2022/10/30 08:26:46;;;;;;;;;;;13.00;99.90;;;;;;6242413;23;19957;-77
2022/10/30 08:29:12;;;;;;;;;;;12.80;99.90;;;;;;6242447;23;19907;-77
2022/10/30 08:31:37;;;;;;;;;;;12.80;99.90;;;;;;6241510;23;19903;-77
2022/10/30 08:34:03;;;;;;;;;;;13.00;99.90;;;;;;6242905;23;20337;-77
2022/10/30 08:36:28;;;;;;;;;;;13.00;99.90;;;;;;6242433;22;20301;-76
2022/10/30 08:38:54;;;;;;;;;;;13.20;99.90;;;;;;6242338;23;19900;-77
2022/10/30 08:41:19;;;;;;;;;;;13.30;99.90;;;;;;6242412;23;19906;-76
2022/10/30 08:43:45;;;;;;;;;;;13.30;99.90;;;;;;6242387;23;19919;-77
2022/10/30 08:46:10;;;;;;;;;;;13.40;99.90;;;;;;6241672;23;19907;-77
2022/10/30 08:48:36;;;;;;;;;;;13.20;99.90;;;;;;6242214;23;19974;-77
2022/10/30 08:51:01;;;;;;;;;;;13.60;99.90;;;;;;6242515;23;20214;-76
2022/10/30 08:53:27;;;;;;;;;;;13.60;99.90;;;;;;6242655;22;19903;-76
2022/10/30 08:55:52;;;;;;;;;;;13.40;99.90;;;;;;6241881;23;20277;-77
2022/10/30 08:58:18;;;;;;;;;;;13.80;99.90;;;;;;6242274;23;20042;-77
2022/10/30 09:00:43;;;;;;;;;;;13.80;99.90;;;;;;6241515;23;19899;-77
2022/10/30 09:03:09;;;;;;;;;;;14.00;99.90;;;;;;6242335;23;19900;-76
2022/10/30 09:05:35;;;;;;;;;;;14.10;99.90;;;;;;6241947;23;19918;-76
2022/10/30 09:08:01;;;;;;;;;;;14.20;99.90;;;;;;6242445;22;19899;-77
2022/10/30 09:10:26;;;;;;;;;;;14.20;99.90;;;;;;6242193;23;19899;-77
2022/10/30 09:12:55;;;;;;;;;;;14.30;99.90;;;;;;6242029;23;19978;-77
2022/10/30 09:15:21;;;;;;;;;;;14.30;99.90;;;;;;6241520;22;19930;-75
2022/10/30 09:17:46;;;;;;;;;;;14.30;99.90;;;;;;6241845;23;19900;-77
2022/10/30 09:20:12;;;;;;;;;;;14.50;99.90;;;;;;6242049;23;19906;-77
2022/10/30 09:22:41;;;;;;;;;;;14.60;99.90;;;;;;6242183;23;19904;-77
2022/10/30 09:25:06;;;;;;;;;;;14.60;99.90;;;;;;6241964;22;20357;-77
2022/10/30 09:27:36;;;;;;;;;;;14.70;99.90;;;;;;6241148;22;19927;-77
2022/10/30 09:30:01;;;;;;;;;;;14.80;99.90;;;;;;6240968;22;19908;-77
2022/10/30 09:32:26;;;;;;;;;;;14.80;99.90;;;;;;6241964;23;19907;-76
2022/10/30 09:34:52;;;;;;;;;;;14.50;99.90;;;;;;6241150;23;19903;-73
2022/10/30 09:37:18;;;;;;;;;;;14.90;99.90;;;;;;6239693;23;19907;-76
2022/10/30 09:39:43;;;;;;;;;;;15.00;99.90;;;;;;6240314;22;19990;-76
2022/10/30 09:42:09;;;;;;;;;;;15.10;99.90;;;;;;6241144;23;19900;-76
2022/10/30 09:44:53;;;;;;;;;;;15.10;99.90;;;;;;6239981;23;19939;-77
2022/10/30 09:47:43;;;;;;;;;;;15.30;99.90;;;;;;6241474;23;19899;-75
2022/10/30 09:50:25;;;;;;;;;;;15.30;99.90;;;;;;6241229;22;19911;-75
2022/10/30 09:52:50;;;;;;;;;;;15.50;99.90;;;;;;6238872;23;20365;-75
2022/10/30 09:55:21;;;;;;;;;;;15.50;99.90;;;;;;6240867;23;19930;-76
2022/10/30 09:58:06;;;;;;;;;;;15.60;99.90;;;;;;6240671;22;19907;-77
2022/10/30 10:00:42;;;;;;;;;;;15.60;99.90;;;;;;6219875;23;19907;-77
2022/10/30 10:03:08;;;;;;;;;;;15.80;99.90;;;;;;6241164;22;19914;-77
2022/10/30 10:05:42;;;;;;;;;;;15.60;99.90;;;;;;6240741;23;19990;-78
2022/10/30 10:08:12;;;;;;;;;;;15.90;99.90;;;;;;6241224;23;20336;-77
2022/10/30 10:10:38;;;;;;;;;;;15.70;99.90;;;;;;6241026;22;19904;-76
2022/10/30 10:13:06;;;;;;;;;;;16.00;99.90;;;;;;6241126;22;19977;-76
2022/10/30 10:15:45;;;;;;;;;;;16.00;99.90;;;;;;6241542;22;19907;-77
2022/10/30 10:18:19;;;;;;;;;;;16.10;99.90;;;;;;6242308;22;19941;-77
2022/10/30 10:20:46;;;;;;;;;;;16.20;99.90;;;;;;6243486;22;19966;-77
2022/10/30 10:23:16;;;;;;;;;;;16.30;99.90;;;;;;6243554;22;19982;-76
2022/10/30 10:25:49;;;;;;;;;;;16.30;99.90;;;;;;6243731;22;19910;-77
2022/10/30 10:28:28;;;;;;;;;;;16.50;99.90;;;;;;6242924;22;20322;-76
2022/10/30 10:30:53;;;;;;;;;;;16.60;99.90;;;;;;6243052;22;19899;-77
2022/10/30 10:33:32;;;;;;;;;;;16.70;99.90;;;;;;6243413;23;19906;-77
2022/10/30 10:36:13;;;;;;;;;;;16.70;99.90;;;;;;6243021;22;19926;-76
2022/10/30 10:38:57;;;;;;;;;;;16.80;99.90;;;;;;6242922;22;20313;-76
2022/10/30 10:41:46;;;;;;;;;;;16.80;99.90;;;;;;6243004;23;20457;-77
2022/10/30 10:44:15;;;;;;;;;;;16.90;99.90;;;;;;6242272;22;19911;-77
2022/10/30 10:46:49;;;;;;;;;;;16.90;99.90;;;;;;6243153;23;19915;-77
2022/10/30 10:49:35;;;;;;;;;;;16.80;99.90;;;;;;6243360;23;20269;-77
2022/10/30 10:52:00;;;;;;;;;;;16.90;99.90;;;;;;6242969;22;19900;-77
2022/10/30 10:54:33;;;;;;;;;;;16.80;99.90;;;;;;6243401;23;19903;-77
2022/10/30 10:56:59;;;;;;;;;;;16.80;99.90;;;;;;6242212;22;19899;-75
2022/10/30 10:59:35;;;;;;;;;;;16.80;99.90;;;;;;6242644;23;19906;-74
2022/10/30 11:02:21;;;;;;;;;;;16.80;99.90;;;;;;6242101;22;19903;-74
2022/10/30 11:04:48;;;;;;;;;;;16.80;99.90;;;;;;6242498;23;19907;-73
2022/10/30 11:07:25;;;;;;;;;;;16.70;99.90;;;;;;6242813;22;19899;-74
2022/10/30 11:09:54;;;;;;;;;;;16.90;99.90;;;;;;6242372;22;19903;-74
2022/10/30 11:12:21;;;;;;;;;;;16.90;99.90;;;;;;6241533;22;19946;-74
2022/10/30 11:14:47;;;;;;;;;;;17.00;99.90;;;;;;6242214;22;19911;-74
2022/10/30 11:17:21;;;;;;;;;;;17.00;99.90;;;;;;6242941;23;19921;-73
2022/10/30 11:19:53;;;;;;;;;;;17.10;99.90;;;;;;6242455;22;20233;-75
2022/10/30 11:22:18;;;;;;;;;;;17.40;99.90;;;;;;6241615;22;19906;-74
2022/10/30 11:24:44;;;;;;;;;;;17.30;99.90;;;;;;6241597;23;20256;-74
2022/10/30 11:27:20;;;;;;;;;;;17.30;99.90;;;;;;6242273;23;19900;-74
2022/10/30 11:29:47;;;;;;;;;;;17.30;99.90;;;;;;6241435;22;19960;-74
2022/10/30 11:32:17;;;;;;;;;;;17.40;99.90;;;;;;6241012;23;19941;-74
2022/10/30 11:34:42;;;;;;;;;;;17.30;99.90;;;;;;6241827;22;20289;-74
2022/10/30 11:37:27;;;;;;;;;;;18.60;99.90;;;;;;6243153;23;19900;-75
2022/10/30 11:40:04;;;;;;;;;;;17.30;99.90;;;;;;6241542;22;19961;-74
2022/10/30 11:42:29;;;;;;;;;;;17.50;99.90;;;;;;6242431;22;19927;-75
2022/10/30 11:44:55;;;;;;;;;;;17.50;99.90;;;;;;6242110;22;19916;-74
2022/10/30 11:47:28;;;;;;;;;;;17.60;99.90;;;;;;6242166;22;20335;-74
2022/10/30 11:49:57;;;;;;;;;;;17.50;99.90;;;;;;6242011;22;19911;-74
2022/10/30 11:52:24;;;;;;;;;;;17.60;99.90;;;;;;6241907;22;19899;-74
2022/10/30 11:54:51;;;;;;;;;;;18.20;99.90;;;;;;6241229;22;19910;-74
2022/10/30 11:57:22;;;;;;;;;;;17.70;99.90;;;;;;6240618;22;19899;-74
2022/10/30 11:59:50;;;;;;;;;;;17.70;99.90;;;;;;6240669;22;19903;-74
2022/10/30 12:02:26;;;;;;;;;;;17.60;99.90;;;;;;6241860;22;20006;-74
2022/10/30 12:04:52;;;;;;;;;;;17.80;99.90;;;;;;6241313;22;19914;-74
2022/10/30 12:07:23;;;;;;;;;;;17.60;99.90;;;;;;6242351;22;19903;-74
2022/10/30 12:09:48;;;;;;;;;;;17.90;99.90;;;;;;6241481;22;19906;-78
2022/10/30 12:12:20;;;;;;;;;;;17.90;99.90;;;;;;6241833;22;19903;-77
2022/10/30 12:14:46;;;;;;;;;;;18.00;99.90;;;;;;6241776;22;19899;-76
2022/10/30 12:17:13;;;;;;;;;;;18.10;99.90;;;;;;6242065;23;19949;-77
2022/10/30 12:19:44;;;;;;;;;;;18.00;99.90;;;;;;6241357;22;19974;-77
2022/10/30 12:22:09;;;;;;;;;;;18.20;99.90;;;;;;6242310;22;19900;-76
2022/10/30 12:24:36;;;;;;;;;;;18.20;99.90;;;;;;6241168;23;19994;-77
2022/10/30 12:27:04;;;;;;;;;;;18.30;99.90;;;;;;6241905;22;20333;-77
2022/10/30 12:29:56;;;;;;;;;;;18.40;99.90;;;;;;6242051;22;19919;-77
2022/10/30 12:32:22;;;;;;;;;;;18.50;99.90;;;;;;6235893;23;19904;-77
2022/10/30 12:34:47;;;;;;;;;;;18.50;99.90;;;;;;6242064;22;19923;-77
2022/10/30 12:37:15;;;;;;;;;;;19.50;99.90;;;;;;6241459;23;19953;-77
2022/10/30 12:39:41;;;;;;;;;;;18.80;99.90;;;;;;6241463;22;19910;-77
2022/10/30 12:42:10;;;;;;;;;;;18.60;99.90;;;;;;6241906;23;19899;-77
2022/10/30 12:44:37;;;;;;;;;;;18.60;99.90;;;;;;6239977;23;19915;-77
2022/10/30 12:47:21;;;;;;;;;;;18.70;99.90;;;;;;6242068;22;19911;-77
2022/10/30 12:49:50;;;;;;;;;;;18.70;99.90;;;;;;6241379;23;20284;-77
2022/10/30 12:52:18;;;;;;;;;;;18.90;99.90;;;;;;6241226;22;19899;-78
2022/10/30 12:54:56;;;;;;;;;;;18.80;99.90;;;;;;6242154;22;19900;-77
2022/10/30 12:57:26;;;;;;;;;;;18.80;99.90;;;;;;6241373;22;19899;-78
2022/10/30 13:00:03;;;;;;;;;;;18.80;99.90;;;;;;6240871;22;20301;-74
2022/10/30 13:02:32;;;;;;;;;;;18.80;99.90;;;;;;6240797;22;19907;-74
2022/10/30 13:05:03;;;;;;;;;;;18.90;99.90;;;;;;6240834;22;19914;-74
2022/10/30 13:07:28;;;;;;;;;;;18.90;99.90;;;;;;6241294;22;19903;-74
2022/10/30 13:10:15;;;;;;;;;;;18.90;99.90;;;;;;6240082;23;20310;-74
2022/10/30 13:12:43;;;;;;;;;;;19.00;99.90;;;;;;6241567;22;19899;-77
2022/10/30 13:15:10;;;;;;;;;;;19.10;99.90;;;;;;6241509;22;19900;-76
2022/10/30 13:17:35;;;;;;;;;;;19.10;99.90;;;;;;6241409;22;20025;-77
2022/10/30 13:20:04;;;;;;;;;;;19.10;99.90;;;;;;6240865;23;19942;-77
2022/10/30 13:22:35;;;;;;;;;;;19.10;99.90;;;;;;6241198;22;19908;-77
2022/10/30 13:25:07;;;;;;;;;;;20.50;99.90;;;;;;6240906;22;19914;-77
2022/10/30 13:27:40;;;;;;;;;;;19.20;99.90;;;;;;6241555;22;19900;-77
2022/10/30 13:30:11;;;;;;;;;;;19.30;99.90;;;;;;6240793;22;19943;-77
2022/10/30 13:32:42;;;;;;;;;;;19.20;99.90;;;;;;6240931;22;19899;-77
2022/10/30 13:35:40;;;;;;;;;;;19.40;99.90;;;;;;6240409;23;19903;-77
2022/10/30 13:38:24;;;;;;;;;;;19.40;99.90;;;;;;6173945;22;20324;-78
2022/10/30 13:40:55;;;;;;;;;;;19.40;99.90;;;;;;6240301;23;19904;-77
2022/10/30 13:43:24;;;;;;;;;;;19.40;99.90;;;;;;6239927;23;19904;-77
2022/10/30 13:45:55;;;;;;;;;;;19.40;99.90;;;;;;6238317;22;19907;-76
2022/10/30 13:48:32;;;;;;;;;;;19.30;99.90;;;;;;6240830;22;19942;-77
2022/10/30 13:51:16;;;;;;;;;;;19.30;99.90;;;;;;6240418;22;20037;-77
2022/10/30 13:53:43;;;;;;;;;;;19.20;99.90;;;;;;6239956;23;20297;-77
2022/10/30 13:56:11;;;;;;;;;;;19.10;99.90;;;;;;6264295;22;19904;-77
2022/10/30 13:58:40;;;;;;;;;;;19.10;99.90;;;;;;6241067;22;19927;-77
2022/10/30 14:01:32;;;;;;;;;;;18.90;99.90;;;;;;6241223;22;19931;-77
2022/10/30 14:04:06;;;;;;;;;;;18.90;99.90;;;;;;6232938;23;19907;-77
2022/10/30 14:06:32;;;;;;;;;;;18.70;99.90;;;;;;6240252;22;20290;-77
2022/10/30 14:09:16;;;;;;;;;;;18.70;99.90;;;;;;6241361;22;19927;-77
2022/10/30 14:11:41;;;;;;;;;;;18.60;99.90;;;;;;6240617;23;20320;-77
2022/10/30 14:14:22;;;;;;;;;;;18.50;99.90;;;;;;6240392;23;19982;-77
2022/10/30 14:17:06;;;;;;;;;;;18.50;99.90;;;;;;6240332;23;19919;-77
2022/10/30 14:19:32;;;;;;;;;;;18.40;99.90;;;;;;6240408;23;20334;-76
2022/10/30 14:21:57;;;;;;;;;;;18.40;99.90;;;;;;6240871;23;20229;-77